Time;durP1;ratioP1;P1;durP2;ratioP2;P2;SDS_P1;SDS_P2;PMS_P1;PMS_P2;Temp;Humidity;BMP_temperature;BMP_pressure;BME280_temperature;BME280_humidity;BME280_pressure;Samples;Min_cycle;Max_cycle;Signal;HPM_P1;HPM_P2
2021/07/01 00:00:44;;;;;;;8.10;6.10;;;;;;;30.03;49.18;100862.97;144992;564;6002;-80
2021/07/01 00:03:10;;;;;;;7.10;5.28;;;;;;;30.01;49.46;100864.84;144992;582;6002;-79
2021/07/01 00:05:37;;;;;;;6.87;5.15;;;;;;;30.01;49.07;100859.50;144992;608;6002;-80
2021/07/01 00:08:04;;;;;;;9.73;5.65;;;;;;;30.00;48.59;100851.53;144992;580;6002;-81
2021/07/01 00:10:30;;;;;;;7.85;5.20;;;;;;;29.99;48.79;100847.16;144992;592;6002;-80
2021/07/01 00:12:57;;;;;;;10.10;5.80;;;;;;;29.97;49.00;100857.94;144993;564;6002;-80
2021/07/01 00:15:27;;;;;;;9.15;5.55;;;;;;;29.94;48.71;100852.72;144993;573;6002;-80
2021/07/01 00:17:54;;;;;;;7.37;5.10;;;;;;;29.95;48.63;100859.78;144993;631;6002;-80
2021/07/01 00:20:21;;;;;;;5.97;5.20;;;;;;;29.95;48.94;100851.75;144993;639;6002;-80
2021/07/01 00:22:49;;;;;;;10.07;5.55;;;;;;;29.96;48.95;100858.00;144993;606;6002;-80
2021/07/01 00:25:16;;;;;;;7.80;5.82;;;;;;;29.93;49.12;100864.34;144993;585;6002;-81
2021/07/01 00:27:43;;;;;;;8.43;6.35;;;;;;;29.93;48.69;100861.69;144993;586;6002;-79
2021/07/01 00:30:11;;;;;;;10.10;6.70;;;;;;;29.91;48.65;100863.56;144993;646;6002;-80
2021/07/01 00:32:38;;;;;;;10.38;6.97;;;;;;;29.90;48.61;100861.81;144993;611;6002;-80
2021/07/01 00:35:06;;;;;;;11.80;6.47;;;;;;;29.90;48.68;100861.81;144993;612;6002;-81
2021/07/01 00:37:33;;;;;;;10.10;6.35;;;;;;;29.90;48.50;100855.62;144993;573;6002;-80
2021/07/01 00:40:05;;;;;;;9.35;6.75;;;;;;;29.89;49.15;100862.78;144993;579;6002;-81
2021/07/01 00:42:33;;;;;;;8.95;6.57;;;;;;;29.89;48.58;100852.09;144993;613;6002;-82
2021/07/01 00:44:59;;;;;;;8.40;5.75;;;;;;;29.91;48.94;100852.88;144993;632;6002;-81
2021/07/01 00:47:26;;;;;;;8.90;5.82;;;;;;;29.93;48.95;100844.78;144992;564;6002;-79
2021/07/01 00:49:53;;;;;;;7.95;5.87;;;;;;;29.94;48.89;100843.81;144993;587;6002;-80
2021/07/01 00:52:20;;;;;;;10.73;5.43;;;;;;;29.93;48.83;100842.94;144993;563;6002;-81
2021/07/01 00:54:47;;;;;;;11.50;5.90;;;;;;;29.94;48.85;100842.03;144993;624;6002;-80
2021/07/01 00:57:13;;;;;;;8.77;6.15;;;;;;;29.93;48.35;100839.41;144993;571;6002;-80
2021/07/01 00:59:40;;;;;;;9.70;6.10;;;;;;;29.90;48.34;100824.38;144993;656;6002;-82
2021/07/01 01:02:07;;;;;;;9.13;5.75;;;;;;;29.89;48.15;100819.97;144993;654;6002;-80
2021/07/01 01:04:34;;;;;;;11.55;6.18;;;;;;;29.84;48.17;100812.19;144994;565;5002;-81
2021/07/01 01:07:04;;;;;;;8.45;6.40;;;;;;;29.83;48.65;100812.25;144994;622;5002;-81
2021/07/01 01:09:30;;;;;;;11.57;6.15;;;;;;;29.81;48.38;100814.13;144994;608;5002;-79
2021/07/01 01:11:57;;;;;;;9.98;5.75;;;;;;;29.81;48.31;100817.69;144994;585;5002;-80
2021/07/01 01:14:24;;;;;;;9.60;5.93;;;;;;;29.80;48.36;100815.09;144994;576;5002;-80
2021/07/01 01:16:50;;;;;;;10.57;5.87;;;;;;;29.75;48.96;100814.38;144994;602;5003;-79
2021/07/01 01:19:17;;;;;;;9.93;6.15;;;;;;;29.69;48.75;100807.53;144994;580;5002;-81
2021/07/01 01:21:45;;;;;;;9.30;5.57;;;;;;;29.65;48.94;100809.50;144994;594;5002;-81
2021/07/01 01:24:12;;;;;;;9.57;6.75;;;;;;;29.64;48.76;100796.22;144994;576;5003;-80
2021/07/01 01:26:38;;;;;;;10.50;6.35;;;;;;;29.62;48.60;100790.94;144994;595;5002;-81
2021/07/01 01:29:04;;;;;;;10.48;7.00;;;;;;;29.53;48.66;100793.19;144994;604;5002;-80
2021/07/01 01:31:32;;;;;;;10.82;6.47;;;;;;;29.48;48.87;100788.06;144994;580;5002;-80
2021/07/01 01:33:59;;;;;;;11.95;6.70;;;;;;;29.45;48.66;100781.03;144994;619;5002;-80
2021/07/01 01:36:25;;;;;;;8.32;6.65;;;;;;;29.47;48.90;100786.31;144994;602;5002;-80
2021/07/01 01:38:52;;;;;;;10.68;6.80;;;;;;;29.47;48.57;100784.50;144994;606;5002;-79
2021/07/01 01:41:23;;;;;;;7.87;6.95;;;;;;;29.48;48.24;100772.03;144994;564;5002;-80
2021/07/01 01:43:49;;;;;;;9.88;7.35;;;;;;;29.47;48.63;100772.94;144994;626;5002;-80
2021/07/01 01:46:16;;;;;;;11.57;7.70;;;;;;;29.45;48.33;100770.34;144994;596;5002;-81
2021/07/01 01:48:42;;;;;;;11.35;7.80;;;;;;;29.47;48.41;100778.28;144994;649;5002;-80
2021/07/01 01:51:09;;;;;;;8.98;7.37;;;;;;;29.46;48.12;100781.91;144994;573;5002;-81
2021/07/01 01:53:35;;;;;;;16.33;7.47;;;;;;;29.46;47.98;100777.44;144994;584;5002;-81
2021/07/01 01:56:02;;;;;;;8.90;7.07;;;;;;;29.46;48.24;100776.56;144994;593;5002;-80
2021/07/01 01:58:29;;;;;;;9.43;6.47;;;;;;;29.43;48.46;100785.59;144994;569;5002;-80
2021/07/01 02:00:55;;;;;;;10.63;6.45;;;;;;;29.34;48.57;100791.38;144994;564;5002;-80
2021/07/01 02:03:21;;;;;;;11.40;7.03;;;;;;;29.29;48.24;100788.94;144994;581;5002;-80
2021/07/01 02:05:48;;;;;;;9.57;6.55;;;;;;;29.23;48.89;100786.53;144994;567;5002;-80
2021/07/01 02:08:14;;;;;;;10.82;6.20;;;;;;;29.18;48.52;100799.22;144994;579;5002;-81
2021/07/01 02:10:41;;;;;;;14.15;6.00;;;;;;;29.16;48.71;100778.84;144994;569;5002;-80
2021/07/01 02:13:10;;;;;;;12.80;5.62;;;;;;;29.17;48.90;100788.63;144994;565;5002;-81
2021/07/01 02:15:37;;;;;;;11.48;5.75;;;;;;;29.17;48.56;100793.97;144994;570;5002;-80
2021/07/01 02:18:04;;;;;;;8.43;5.68;;;;;;;29.17;48.79;100801.97;144994;619;5002;-80
2021/07/01 02:20:30;;;;;;;9.85;6.05;;;;;;;29.20;48.51;100799.19;144994;585;5002;-80
2021/07/01 02:22:57;;;;;;;10.27;5.70;;;;;;;29.24;48.54;100790.06;144994;566;5002;-80
2021/07/01 02:25:24;;;;;;;9.48;5.60;;;;;;;29.24;48.38;100790.97;144994;591;5002;-81
2021/07/01 02:27:50;;;;;;;13.57;5.93;;;;;;;29.28;48.01;100784.50;144994;612;5002;-80
2021/07/01 02:30:18;;;;;;;11.50;6.15;;;;;;;29.28;48.49;100787.19;144994;589;5002;-82
2021/07/01 02:32:44;;;;;;;13.55;6.55;;;;;;;29.30;48.19;100785.34;144994;592;5002;-79
2021/07/01 02:35:12;;;;;;;11.27;6.35;;;;;;;29.36;48.49;100791.31;144994;587;5002;-81
2021/07/01 02:37:40;;;;;;;14.55;6.37;;;;;;;29.42;48.57;100797.22;144994;594;5002;-81
2021/07/01 02:40:12;;;;;;;8.07;6.07;;;;;;;29.44;47.82;100795.34;144994;600;5002;-81
2021/07/01 02:42:39;;;;;;;13.05;6.15;;;;;;;29.49;48.31;100800.47;144994;572;5002;-82
2021/07/01 02:45:08;;;;;;;12.70;6.55;;;;;;;29.55;48.14;100797.50;144994;563;5002;-82
2021/07/01 02:47:35;;;;;;;11.90;7.55;;;;;;;29.49;45.30;100790.66;144994;600;5002;-79
2021/07/01 02:50:03;;;;;;;11.60;6.37;;;;;;;29.53;47.97;100794.03;144994;600;5002;-82
2021/07/01 02:52:29;;;;;;;12.23;6.15;;;;;;;29.53;46.79;100798.53;144993;571;5002;-81
2021/07/01 02:54:56;;;;;;;8.95;5.50;;;;;;;29.47;47.88;100803.22;144994;605;5002;-80
2021/07/01 02:57:23;;;;;;;13.48;5.50;;;;;;;29.48;47.98;100799.63;144994;579;5002;-81
2021/07/01 02:59:49;;;;;;;10.32;5.25;;;;;;;29.42;47.76;100802.59;144994;577;5002;-81
2021/07/01 03:02:15;;;;;;;8.68;5.50;;;;;;;29.43;47.87;100808.78;144994;597;5002;-80
2021/07/01 03:04:42;;;;;;;12.98;5.40;;;;;;;29.35;47.63;100806.50;144994;600;5002;-79
2021/07/01 03:07:08;;;;;;;11.32;5.60;;;;;;;29.35;47.37;100803.84;144994;585;5002;-80
2021/07/01 03:09:35;;;;;;;10.70;5.30;;;;;;;29.25;47.03;100814.06;144994;569;5002;-81
2021/07/01 03:12:01;;;;;;;13.88;6.28;;;;;;;29.15;47.25;100803.88;144994;601;5002;-80
2021/07/01 03:14:28;;;;;;;10.00;4.87;;;;;;;29.10;45.42;100806.75;144994;565;5002;-80
2021/07/01 03:16:55;;;;;;;13.30;5.62;;;;;;;29.04;47.83;100810.56;144994;572;5002;-81
2021/07/01 03:19:21;;;;;;;11.55;5.47;;;;;;;29.06;47.54;100811.34;144994;627;5002;-82
2021/07/01 03:21:48;;;;;;;8.82;5.18;;;;;;;29.09;47.06;100818.38;144994;580;5002;-80
2021/07/01 03:24:15;;;;;;;13.45;5.72;;;;;;;29.10;47.01;100817.44;144994;698;5002;-78
2021/07/01 03:26:41;;;;;;;12.07;5.43;;;;;;;29.15;47.48;100812.75;144994;683;5002;-80
2021/07/01 03:29:08;;;;;;;9.85;5.53;;;;;;;29.16;46.96;100814.50;144994;692;5002;-81
2021/07/01 03:31:35;;;;;;;9.68;5.55;;;;;;;29.12;46.98;100820.91;144994;592;5002;-81
2021/07/01 03:34:02;;;;;;;16.37;6.00;;;;;;;29.13;46.98;100822.66;144994;587;5002;-80
2021/07/01 03:36:29;;;;;;;7.00;4.85;;;;;;;29.16;47.33;100824.28;144994;632;5002;-81
2021/07/01 03:38:56;;;;;;;15.48;5.57;;;;;;;29.20;46.68;100826.78;144993;627;5002;-80
2021/07/01 03:41:23;;;;;;;13.95;5.78;;;;;;;29.23;47.11;100815.09;144994;604;5002;-81
2021/07/01 03:43:52;;;;;;;13.10;6.10;;;;;;;29.22;47.12;100816.87;144994;563;5002;-80
2021/07/01 03:46:19;;;;;;;11.35;5.30;;;;;;;29.25;46.77;100815.88;144994;593;5002;-82
2021/07/01 03:48:45;;;;;;;11.05;5.75;;;;;;;29.30;46.55;100824.53;144994;581;5002;-80
2021/07/01 03:51:12;;;;;;;11.65;5.95;;;;;;;29.33;46.73;100818.19;144994;614;5002;-80
2021/07/01 03:53:38;;;;;;;11.68;5.68;;;;;;;29.36;47.00;100812.72;144994;620;5002;-81
2021/07/01 03:56:05;;;;;;;11.90;5.90;;;;;;;29.38;46.70;100801.00;144994;575;5002;-80
2021/07/01 03:58:31;;;;;;;14.10;6.18;;;;;;;29.41;46.73;100794.62;144994;609;5002;-79
2021/07/01 04:00:58;;;;;;;13.18;6.43;;;;;;;29.43;46.29;100798.97;144994;587;5002;-81
2021/07/01 04:03:30;;;;;;;12.68;5.87;;;;;;;29.46;46.14;100804.19;144994;575;5002;-80
2021/07/01 04:06:06;;;;;;;11.57;5.78;;;;;;;29.51;46.43;100803.97;144994;649;5002;-80
2021/07/01 04:08:36;;;;;;;11.70;5.80;;;;;;;29.57;46.59;100803.63;144994;570;5002;-81
2021/07/01 04:11:09;;;;;;;12.88;5.97;;;;;;;29.67;46.58;100799.59;144994;704;5002;-79
2021/07/01 04:13:38;;;;;;;20.02;6.20;;;;;;;29.79;46.19;100799.97;144994;617;5002;-78
2021/07/01 04:16:10;;;;;;;12.27;6.30;;;;;;;29.88;46.24;100802.19;144993;586;5002;-83
2021/07/01 04:18:38;;;;;;;16.30;6.70;;;;;;;29.97;46.38;100800.84;144994;597;5002;-81
2021/07/01 04:21:10;;;;;;;11.68;6.70;;;;;;;30.07;45.64;100798.56;144994;595;5002;-82
2021/07/01 04:23:38;;;;;;;13.98;6.95;;;;;;;30.16;46.20;100803.44;144994;571;5002;-81
2021/07/01 04:26:06;;;;;;;20.17;7.50;;;;;;;30.22;45.62;100800.47;144994;670;5002;-82
2021/07/01 04:28:32;;;;;;;14.45;6.40;;;;;;;30.26;46.07;100799.37;144993;603;5002;-78
2021/07/01 04:30:59;;;;;;;18.95;6.30;;;;;;;30.26;46.06;100801.16;144994;569;5002;-80
2021/07/01 04:33:27;;;;;;;18.65;6.97;;;;;;;30.17;45.85;100802.53;144994;613;5002;-81
2021/07/01 04:35:54;;;;;;;22.92;6.72;;;;;;;30.17;46.22;100814.09;144994;581;5002;-81
2021/07/01 04:38:21;;;;;;;15.15;6.75;;;;;;;30.16;45.60;100806.13;144994;573;5002;-80
2021/07/01 04:40:48;;;;;;;14.60;6.50;;;;;;;30.19;45.75;100808.66;144994;587;5002;-80
2021/07/01 04:43:22;;;;;;;15.57;5.80;;;;;;;30.23;45.67;100812.06;144994;597;5002;-81
2021/07/01 04:45:49;;;;;;;14.65;6.70;;;;;;;30.23;45.60;100812.91;144994;684;5002;-81
2021/07/01 04:48:18;;;;;;;17.20;7.10;;;;;;;30.28;45.74;100812.69;144994;597;5002;-81
2021/07/01 04:50:56;;;;;;;17.10;7.75;;;;;;;30.37;45.68;100818.44;144994;605;5002;-83
2021/07/01 04:53:24;;;;;;;23.77;8.18;;;;;;;30.45;45.86;100817.19;144994;578;5002;-82
2021/07/01 04:55:51;;;;;;;20.92;7.20;;;;;;;30.52;46.24;100813.25;144994;591;5002;-80
2021/07/01 04:58:19;;;;;;;19.87;7.57;;;;;;;30.50;46.52;100809.78;144994;614;5002;-80
2021/07/01 05:00:49;;;;;;;19.67;7.30;;;;;;;30.55;46.42;100815.78;144994;591;5002;-79
2021/07/01 05:03:16;;;;;;;17.50;7.90;;;;;;;30.61;46.38;100819.91;144994;635;5002;-81
2021/07/01 05:05:43;;;;;;;18.30;8.18;;;;;;;30.60;46.05;100815.53;144994;629;5002;-80
2021/07/01 05:08:10;;;;;;;15.63;7.45;;;;;;;30.56;46.09;100820.19;144994;589;5002;-81
2021/07/01 05:10:36;;;;;;;18.08;7.12;;;;;;;30.53;46.55;100815.00;144994;574;5002;-81
2021/07/01 05:13:03;;;;;;;20.60;7.70;;;;;;;30.51;46.71;100807.03;144994;592;5002;-81
2021/07/01 05:15:29;;;;;;;16.62;8.50;;;;;;;30.50;46.68;100821.38;144994;599;5002;-80
2021/07/01 05:17:56;;;;;;;17.95;7.30;;;;;;;30.48;45.99;100817.03;144994;584;5002;-80
2021/07/01 05:20:22;;;;;;;14.82;7.30;;;;;;;30.45;46.03;100826.09;144994;631;5002;-81
2021/07/01 05:22:49;;;;;;;18.15;8.20;;;;;;;30.46;46.00;100821.59;144994;621;5002;-80
2021/07/01 05:25:15;;;;;;;17.85;7.60;;;;;;;30.46;46.19;100816.25;144994;613;5002;-81
2021/07/01 05:27:41;;;;;;;22.35;8.02;;;;;;;30.47;46.41;100812.63;144994;563;5002;-81
2021/07/01 05:30:08;;;;;;;16.77;7.97;;;;;;;30.48;46.20;100817.91;144994;574;5002;-80
2021/07/01 05:32:35;;;;;;;16.77;7.70;;;;;;;30.49;46.52;100811.59;144994;610;5002;-81
2021/07/01 05:35:02;;;;;;;18.95;7.57;;;;;;;30.52;46.74;100811.44;144994;569;5002;-80
2021/07/01 05:37:28;;;;;;;17.67;7.70;;;;;;;30.55;46.89;100800.56;144994;626;4566;-81
2021/07/01 05:39:55;;;;;;;15.90;8.05;;;;;;;30.55;46.23;100799.69;144994;598;4569;-79
2021/07/01 05:42:21;;;;;;;24.73;10.68;;;;;;;30.50;46.42;100801.75;144994;569;4572;-81
2021/07/01 05:44:48;;;;;;;18.50;10.10;;;;;;;30.50;46.51;100796.41;144992;565;6002;-80
2021/07/01 05:47:14;;;;;;;22.02;10.00;;;;;;;30.52;46.50;100800.72;144992;569;6002;-80
2021/07/01 05:49:41;;;;;;;18.08;9.63;;;;;;;30.53;47.02;100801.59;144992;585;6002;-80
2021/07/01 05:52:08;;;;;;;18.08;8.52;;;;;;;30.38;45.17;100795.22;144992;675;6002;-79
2021/07/01 05:54:37;;;;;;;19.67;8.73;;;;;;;30.34;46.73;100793.63;144992;570;6002;-81
2021/07/01 05:57:05;;;;;;;21.52;8.95;;;;;;;30.41;46.76;100788.84;144992;581;6002;-79
2021/07/01 05:59:32;;;;;;;16.30;8.52;;;;;;;30.51;46.75;100801.69;144992;564;6002;-80
2021/07/01 06:01:59;;;;;;;14.98;8.73;;;;;;;30.61;46.87;100806.53;144992;576;6002;-81
2021/07/01 06:04:25;;;;;;;18.73;8.30;;;;;;;30.68;46.93;100806.13;144992;578;6002;-79
2021/07/01 06:06:54;;;;;;;13.05;8.63;;;;;;;30.53;46.96;100802.47;144992;586;6002;-80
2021/07/01 06:09:26;;;;;;;19.23;8.77;;;;;;;30.60;46.49;100800.31;144992;581;6002;-80
2021/07/01 06:12:00;;;;;;;16.45;9.45;;;;;;;30.61;46.49;100799.37;144992;608;6002;-80
2021/07/01 06:14:28;;;;;;;18.20;8.68;;;;;;;30.51;46.42;100788.28;144992;578;6002;-80
2021/07/01 06:17:02;;;;;;;17.48;8.48;;;;;;;30.55;46.79;100784.47;144992;587;6002;-80
2021/07/01 06:19:28;;;;;;;15.65;8.90;;;;;;;30.61;47.05;100782.41;144992;571;6002;-81
2021/07/01 06:21:54;;;;;;;15.43;8.18;;;;;;;30.60;47.38;100792.28;144992;600;6003;-81
2021/07/01 06:24:21;;;;;;;17.02;8.68;;;;;;;30.60;47.50;100796.78;144992;636;6002;-81
2021/07/01 06:26:48;;;;;;;19.75;10.38;;;;;;;30.52;47.36;100797.19;144992;573;6002;-81
2021/07/01 06:29:16;;;;;;;18.35;9.23;;;;;;;30.49;47.47;100800.88;144992;616;6003;-81
2021/07/01 06:31:43;;;;;;;13.45;8.30;;;;;;;30.59;47.33;100803.94;144992;616;6002;-80
2021/07/01 06:34:09;;;;;;;13.80;8.70;;;;;;;30.56;48.41;100804.97;144992;621;6002;-81
2021/07/01 06:36:41;;;;;;;13.30;8.45;;;;;;;30.59;47.83;100808.44;144992;575;6002;-81
2021/07/01 06:39:07;;;;;;;15.00;9.25;;;;;;;30.70;49.35;100819.44;144992;569;6002;-81
2021/07/01 06:41:37;;;;;;;13.88;8.50;;;;;;;30.62;49.21;100817.16;144992;615;6002;-80
2021/07/01 06:44:06;;;;;;;15.43;9.10;;;;;;;30.50;49.31;100821.38;144992;573;6002;-82
2021/07/01 06:46:33;;;;;;;22.45;9.90;;;;;;;30.40;49.63;100817.44;144992;569;6002;-81
2021/07/01 06:49:01;;;;;;;13.10;8.70;;;;;;;30.30;51.36;100814.31;144992;572;6002;-81
2021/07/01 06:51:37;;;;;;;17.20;7.68;;;;;;;30.38;50.25;100811.28;144992;617;6002;-81
2021/07/01 06:54:04;;;;;;;14.98;7.75;;;;;;;30.41;51.69;100815.63;144992;564;6002;-81
2021/07/01 06:56:38;;;;;;;13.95;7.68;;;;;;;30.36;51.24;100805.12;144992;617;6002;-81
2021/07/01 06:59:15;;;;;;;11.30;6.70;;;;;;;30.39;53.18;100802.31;144992;565;6002;-81
2021/07/01 07:01:41;;;;;;;14.18;6.87;;;;;;;30.39;54.14;100811.22;144992;637;6002;-80
2021/07/01 07:04:10;;;;;;;11.98;6.50;;;;;;;30.55;52.57;100800.56;144992;594;6002;-82
2021/07/01 07:06:37;;;;;;;10.60;6.80;;;;;;;30.52;52.85;100810.56;144992;642;6002;-82
2021/07/01 07:09:04;;;;;;;10.43;6.43;;;;;;;30.38;54.21;100808.59;144991;609;6002;-81
2021/07/01 07:11:34;;;;;;;9.70;6.60;;;;;;;30.32;54.20;100804.41;144992;592;6002;-82
2021/07/01 07:14:00;;;;;;;11.05;6.43;;;;;;;30.20;55.45;100800.53;144992;622;6002;-81
2021/07/01 07:16:27;;;;;;;8.95;6.25;;;;;;;30.06;56.77;100799.53;144992;632;6002;-81
2021/07/01 07:18:56;;;;;;;8.45;6.75;;;;;;;30.09;57.00;100794.88;144992;596;6002;-82
2021/07/01 07:21:22;;;;;;;10.82;6.93;;;;;;;29.90;59.42;100786.06;144992;612;6002;-81
2021/07/01 07:23:54;;;;;;;10.77;6.97;;;;;;;29.95;57.55;100786.69;144992;589;6002;-80
2021/07/01 07:26:25;;;;;;;9.88;6.87;;;;;;;29.98;57.88;100776.69;144993;600;6002;-81
2021/07/01 07:28:53;;;;;;;7.57;6.50;;;;;;;29.89;58.41;100774.50;144992;586;6003;-81
2021/07/01 07:31:33;;;;;;;11.88;6.70;;;;;;;29.94;57.66;100771.56;144992;625;6002;-81
2021/07/01 07:34:04;;;;;;;10.20;6.72;;;;;;;29.95;57.58;100779.50;144992;616;6002;-82
2021/07/01 07:36:33;;;;;;;12.30;7.03;;;;;;;29.91;58.42;100761.91;144992;573;6003;-81
2021/07/01 07:39:00;;;;;;;12.02;7.05;;;;;;;29.87;57.64;100746.94;144992;612;6002;-82
2021/07/01 07:41:27;;;;;;;11.88;6.97;;;;;;;29.85;58.34;100740.78;144992;587;6002;-82
2021/07/01 07:43:55;;;;;;;11.77;6.65;;;;;;;30.00;57.68;100733.78;144992;566;6002;-82
2021/07/01 07:46:24;;;;;;;12.32;6.93;;;;;;;30.10;57.17;100739.53;144992;594;6002;-81
2021/07/01 07:48:51;;;;;;;9.45;6.30;;;;;;;29.98;59.18;100728.50;144991;579;6002;-81
2021/07/01 07:51:22;;;;;;;13.40;7.18;;;;;;;30.17;57.72;100720.38;144992;607;6002;-80
2021/07/01 07:54:02;;;;;;;11.88;6.53;;;;;;;30.32;56.18;100739.28;144992;620;6002;-82
2021/07/01 07:56:37;;;;;;;12.48;7.15;;;;;;;30.38;56.80;100731.84;144992;582;6002;-82
2021/07/01 07:59:09;;;;;;;9.70;6.75;;;;;;;30.17;56.88;100735.59;144992;581;6002;-81
2021/07/01 08:01:38;;;;;;;8.77;6.37;;;;;;;30.19;56.09;100731.91;144991;563;6002;-81
2021/07/01 08:04:06;;;;;;;10.93;6.40;;;;;;;30.11;56.35;100726.06;144992;551;6002;-83
2021/07/01 08:06:34;;;;;;;7.85;5.53;;;;;;;30.16;56.07;100716.00;144992;588;6002;-80
2021/07/01 08:09:04;;;;;;;13.02;6.78;;;;;;;30.27;55.53;100720.78;144992;573;6002;-82
2021/07/01 08:11:34;;;;;;;12.88;7.18;;;;;;;30.36;55.99;100727.47;144992;569;6002;-81
2021/07/01 08:14:01;;;;;;;11.12;6.50;;;;;;;30.26;56.24;100716.38;144992;592;6002;-80
2021/07/01 08:16:28;;;;;;;9.35;6.60;;;;;;;30.17;56.21;100719.53;144992;642;6002;-81
2021/07/01 08:18:55;;;;;;;9.73;6.57;;;;;;;30.18;56.28;100723.97;144992;655;6002;-81
2021/07/01 08:21:22;;;;;;;11.65;6.82;;;;;;;30.20;56.99;100722.06;144992;570;6002;-84
2021/07/01 08:23:48;;;;;;;13.75;7.43;;;;;;;30.25;55.93;100708.44;144992;632;6002;-81
2021/07/01 08:26:15;;;;;;;13.02;7.03;;;;;;;30.41;55.84;100714.72;144992;582;6002;-81
2021/07/01 08:28:42;;;;;;;9.98;7.15;;;;;;;30.56;55.06;100708.56;144992;589;6002;-81
2021/07/01 08:31:13;;;;;;;14.87;8.05;;;;;;;30.77;54.60;100702.97;144992;570;6002;-81
2021/07/01 08:33:44;;;;;;;10.48;7.30;;;;;;;30.77;54.82;100711.00;144992;624;6002;-81
2021/07/01 08:36:22;;;;;;;13.57;7.20;;;;;;;30.89;55.03;100706.78;144992;574;6003;-82
2021/07/01 08:38:51;;;;;;;14.93;7.28;;;;;;;31.07;54.54;100705.78;144991;653;6002;-81
2021/07/01 08:41:20;;;;;;;11.15;6.47;;;;;;;31.03;53.87;100704.22;144992;615;6002;-81
2021/07/01 08:43:58;;;;;;;10.05;6.47;;;;;;;31.03;53.69;100698.00;144992;588;6003;-80
2021/07/01 08:46:30;;;;;;;13.77;6.35;;;;;;;31.03;54.21;100693.50;144992;660;6002;-81
2021/07/01 08:49:03;;;;;;;12.18;6.43;;;;;;;31.16;53.74;100703.53;144992;585;6002;-82
2021/07/01 08:51:33;;;;;;;12.10;6.90;;;;;;;31.09;52.76;100703.00;144992;564;6002;-83
2021/07/01 08:54:44;;;;;;;9.50;5.90;;;;;;;31.11;49.06;100693.91;144992;593;6002;-81
2021/07/01 08:57:14;;;;;;;9.57;5.57;;;;;;;31.20;48.16;100697.06;144992;603;6004;-81
2021/07/01 08:59:56;;;;;;;16.30;5.75;;;;;;;31.31;48.06;100697.28;144992;673;6004;-82
2021/07/01 09:02:24;;;;;;;14.40;5.72;;;;;;;31.46;48.49;100682.97;144992;655;6004;-84
2021/07/01 09:05:06;;;;;;;9.55;5.65;;;;;;;31.56;45.32;100691.41;144992;597;6004;-82
2021/07/01 09:07:36;;;;;;;10.85;5.40;;;;;;;31.59;46.17;100698.37;144992;583;6004;-80
2021/07/01 09:10:07;;;;;;;11.43;5.75;;;;;;;31.63;45.95;100687.38;144992;606;6004;-81
2021/07/01 09:12:34;;;;;;;10.23;6.20;;;;;;;31.71;46.23;100686.94;144991;571;6000;-81
2021/07/01 09:15:08;;;;;;;9.45;5.87;;;;;;;31.72;45.25;100683.31;144992;714;6002;-80
2021/07/01 09:17:36;;;;;;;13.52;4.50;;;;;;;31.78;44.83;100680.22;144992;622;6002;-81
2021/07/01 09:20:09;;;;;;;10.32;4.62;;;;;;;31.83;43.07;100671.91;144992;658;6002;-81
2021/07/01 09:22:36;;;;;;;13.93;5.68;;;;;;;31.83;44.17;100680.84;144992;598;6002;-83
2021/07/01 09:25:03;;;;;;;13.45;5.20;;;;;;;32.06;43.81;100673.22;144992;565;6002;-82
2021/07/01 09:27:31;;;;;;;10.75;5.43;;;;;;;32.01;43.93;100670.81;144992;570;6002;-80
2021/07/01 09:30:01;;;;;;;12.75;5.37;;;;;;;32.07;43.50;100669.56;144992;565;6002;-81
2021/07/01 09:32:29;;;;;;;14.20;5.68;;;;;;;32.04;44.19;100660.81;144992;564;6002;-80
2021/07/01 09:34:56;;;;;;;13.68;5.60;;;;;;;32.13;43.36;100661.16;144992;593;6002;-80
2021/07/01 09:37:23;;;;;;;13.13;5.47;;;;;;;32.26;43.11;100652.34;144992;619;6002;-80
2021/07/01 09:39:49;;;;;;;20.45;5.65;;;;;;;32.43;43.14;100656.66;144992;594;6002;-80
2021/07/01 09:42:16;;;;;;;11.70;5.18;;;;;;;32.52;42.52;100648.88;144992;605;6002;-81
2021/07/01 09:44:42;;;;;;;13.10;5.28;;;;;;;32.63;42.62;100632.12;144992;655;6002;-81
2021/07/01 09:47:10;;;;;;;10.32;5.40;;;;;;;32.78;42.80;100642.84;144992;586;6002;-80
2021/07/01 09:49:44;;;;;;;15.07;5.60;;;;;;;32.93;42.30;100646.34;144992;594;6002;-80
2021/07/01 09:52:13;;;;;;;13.13;5.55;;;;;;;32.96;42.07;100635.38;144992;581;6002;-80
2021/07/01 09:54:47;;;;;;;11.18;5.12;;;;;;;32.97;41.92;100626.38;144992;579;6002;-81
2021/07/01 09:57:31;;;;;;;14.38;5.65;;;;;;;33.03;41.10;100621.44;144992;602;6002;-83
2021/07/01 10:00:15;;;;;;;15.23;5.55;;;;;;;33.19;41.59;100624.00;144992;651;6002;-80
2021/07/01 10:02:41;;;;;;;;;;;;;;;33.28;41.29;100619.84;144997;914;6002;-81
2021/07/01 10:05:30;;;;;;;11.88;5.20;;;;;;;33.31;38.82;100613.37;144997;586;6002;-81
2021/07/01 10:07:56;;;;;;;16.67;5.70;;;;;;;33.40;40.61;100612.75;144991;599;6000;-81
2021/07/01 10:10:23;;;;;;;13.55;5.97;;;;;;;33.52;40.62;100611.03;144992;599;6002;-80
2021/07/01 10:12:55;;;;;;;13.38;6.30;;;;;;;33.58;40.29;100605.25;144992;610;6002;-80
2021/07/01 10:15:33;;;;;;;14.68;6.80;;;;;;;33.69;41.81;100602.66;144992;717;6002;-81
2021/07/01 10:18:10;;;;;;;14.38;5.75;;;;;;;33.79;41.45;100597.56;144992;578;6002;-81
2021/07/01 10:20:42;;;;;;;11.77;6.15;;;;;;;33.87;41.64;100599.69;144991;572;6002;-80
2021/07/01 10:23:23;;;;;;;9.45;6.07;;;;;;;33.89;41.94;100577.09;144992;605;6002;-81
2021/07/01 10:25:51;;;;;;;10.35;6.18;;;;;;;33.96;40.50;100573.00;144992;581;6002;-80
2021/07/01 10:28:20;;;;;;;12.70;6.00;;;;;;;34.01;40.50;100571.81;144992;621;6002;-80
2021/07/01 10:31:01;;;;;;;17.48;6.12;;;;;;;34.24;40.26;100571.06;144992;682;6002;-80
2021/07/01 10:33:30;;;;;;;15.38;6.60;;;;;;;34.18;39.77;100576.84;144992;569;6002;-80
2021/07/01 10:36:02;;;;;;;15.25;7.50;;;;;;;34.13;38.73;100563.72;144992;585;6002;-80
2021/07/01 10:38:46;;;;;;;15.00;6.70;;;;;;;34.16;39.24;100565.34;144992;593;6002;-75
2021/07/01 10:41:32;;;;;;;11.73;5.78;;;;;;;34.27;38.20;100565.44;144992;607;6002;-75
2021/07/01 10:43:59;;;;;;;21.12;5.85;;;;;;;34.38;36.07;100547.62;144992;581;6002;-74
2021/07/01 10:46:47;;;;;;;22.50;5.37;;;;;;;34.52;38.04;100544.78;144992;633;6002;-74
2021/07/01 10:49:15;;;;;;;19.80;5.65;;;;;;;34.57;35.09;100548.00;144992;566;6002;-78
2021/07/01 10:51:58;;;;;;;17.27;6.10;;;;;;;34.61;36.51;100536.00;144992;566;6002;-78
2021/07/01 10:54:26;;;;;;;18.70;5.60;;;;;;;34.72;37.01;100535.22;144992;588;6002;-76
2021/07/01 10:57:05;;;;;;;18.12;5.82;;;;;;;34.72;36.78;100543.28;144992;577;6002;-79
2021/07/01 10:59:50;;;;;;;17.75;5.43;;;;;;;34.59;37.18;100537.97;144992;596;6002;-78
2021/07/01 11:02:26;;;;;;;12.68;5.20;;;;;;;34.53;37.73;100527.63;144992;568;6004;-74
2021/07/01 11:04:55;;;;;;;16.67;5.35;;;;;;;34.55;37.33;100525.69;144992;596;6005;-75
2021/07/01 11:07:22;;;;;;;16.92;5.60;;;;;;;34.53;37.54;100522.25;144992;590;6004;-75
2021/07/01 11:09:56;;;;;;;16.27;5.70;;;;;;;34.53;35.93;100517.72;144992;563;6004;-75
2021/07/01 11:12:25;;;;;;;21.67;5.30;;;;;;;34.57;34.92;100518.37;144992;574;6012;-74
2021/07/01 11:14:54;;;;;;;18.17;4.68;;;;;;;34.70;34.95;100516.47;144992;581;6004;-74
2021/07/01 11:17:41;;;;;;;22.77;4.90;;;;;;;34.73;34.84;100510.00;144992;583;6004;-75
2021/07/01 11:20:21;;;;;;;15.20;5.40;;;;;;;34.80;35.18;100508.56;144992;731;6005;-73
2021/07/01 11:22:51;;;;;;;13.68;5.28;;;;;;;34.79;36.00;100511.37;144992;561;6004;-76
2021/07/01 11:25:29;;;;;;;22.37;5.85;;;;;;;34.84;36.28;100509.19;144992;574;6004;-76
2021/07/01 11:28:15;;;;;;;22.98;6.22;;;;;;;34.88;36.22;100505.28;144992;579;6004;-76
2021/07/01 11:30:54;;;;;;;17.62;5.35;;;;;;;35.01;36.97;100505.22;144992;570;6004;-76
2021/07/01 11:33:23;;;;;;;13.43;5.05;;;;;;;34.90;37.21;100503.31;144992;657;6004;-76
2021/07/01 11:35:51;;;;;;;13.02;4.72;;;;;;;34.91;38.30;100493.44;144992;572;6004;-78